Time;durP1;ratioP1;P1;durP2;ratioP2;P2;SDS_P1;SDS_P2;PMS_P1;PMS_P2;Temp;Humidity;BMP_temperature;BMP_pressure;BME280_temperature;BME280_humidity;BME280_pressure;Samples;Min_cycle;Max_cycle;Signal;HPM_P1;HPM_P2
2023/08/18 00:02:12;;;;;;;25.60;21.40;;;21.40;99.90;;;;;;5010711;28;20101;-47
2023/08/18 00:04:58;;;;;;;24.88;21.50;;;21.40;99.90;;;;;;5015417;28;20038;-45
2023/08/18 00:07:44;;;;;;;25.42;22.75;;;21.50;99.90;;;;;;5008352;28;20658;-46
2023/08/18 00:10:30;;;;;;;23.33;20.75;;;21.50;99.90;;;;;;4999593;28;20660;-43
2023/08/18 00:13:16;;;;;;;23.17;20.77;;;21.50;99.90;;;;;;5011198;28;20501;-46
2023/08/18 00:16:02;;;;;;;24.98;21.05;;;21.50;99.90;;;;;;4999555;28;20026;-46
2023/08/18 00:18:48;;;;;;;22.65;18.75;;;21.50;99.90;;;;;;5017841;28;20545;-47
2023/08/18 00:21:34;;;;;;;23.33;20.70;;;21.50;99.90;;;;;;5006311;28;20434;-45
2023/08/18 00:24:20;;;;;;;27.77;22.15;;;21.40;99.90;;;;;;5012854;28;20069;-45
2023/08/18 00:27:06;;;;;;;29.67;20.58;;;21.50;99.90;;;;;;5010475;28;20034;-51
2023/08/18 00:29:52;;;;;;;23.88;20.38;;;21.50;99.90;;;;;;4994197;28;20027;-48
2023/08/18 00:32:38;;;;;;;23.30;20.60;;;21.50;99.90;;;;;;4994664;28;20027;-48
2023/08/18 00:35:24;;;;;;;28.98;23.52;;;21.40;99.90;;;;;;4993346;28;20497;-50
2023/08/18 00:38:10;;;;;;;26.15;20.83;;;21.40;99.90;;;;;;4994287;28;20466;-48
2023/08/18 00:40:56;;;;;;;22.63;20.13;;;21.40;99.90;;;;;;4993785;28;20683;-45
2023/08/18 00:43:42;;;;;;;23.60;21.13;;;21.40;99.90;;;;;;4993741;28;20061;-43
2023/08/18 00:46:29;;;;;;;23.00;20.27;;;21.50;99.90;;;;;;4993248;28;20034;-43
2023/08/18 00:49:17;;;;;;;25.50;22.20;;;21.30;99.90;;;;;;4995315;28;20035;-45
2023/08/18 00:52:03;;;;;;;27.65;22.65;;;21.20;99.90;;;;;;4994339;28;20391;-49
2023/08/18 00:54:50;;;;;;;25.17;22.00;;;21.20;99.90;;;;;;4994494;28;20034;-44
2023/08/18 00:57:38;;;;;;;25.05;22.38;;;21.10;99.90;;;;;;4993920;28;20092;-48
2023/08/18 01:00:24;;;;;;;24.92;20.48;;;21.10;99.90;;;;;;4994128;28;20037;-45
2023/08/18 01:03:10;;;;;;;24.05;21.33;;;21.10;99.90;;;;;;4993497;28;20030;-47
2023/08/18 01:05:56;;;;;;;25.23;22.08;;;21.10;99.90;;;;;;5010996;28;20029;-43
2023/08/18 01:08:42;;;;;;;28.42;25.38;;;21.00;99.90;;;;;;5009756;28;20026;-44
2023/08/18 01:11:33;;;;;;;31.45;27.88;;;20.90;99.90;;;;;;5000055;28;20029;-44
2023/08/18 01:14:56;;;;;;;33.08;27.27;;;20.90;99.90;;;;;;4993515;28;20086;-43
2023/08/18 01:17:50;;;;;;;29.42;26.05;;;20.80;99.90;;;;;;4992520;28;20113;-46
2023/08/18 01:20:37;;;;;;;33.28;28.88;;;20.80;99.90;;;;;;5011725;28;20172;-46
2023/08/18 01:23:35;;;;;;;39.05;31.70;;;20.70;99.90;;;;;;5013045;28;20052;-47
2023/08/18 01:26:21;;;;;;;33.45;29.52;;;20.50;99.90;;;;;;5012351;28;20113;-49
2023/08/18 01:29:07;;;;;;;34.88;31.02;;;20.40;99.90;;;;;;5014180;28;20512;-50
2023/08/18 01:31:56;;;;;;;38.15;31.55;;;20.40;99.90;;;;;;5011853;28;20025;-47
2023/08/18 01:34:45;;;;;;;45.70;32.33;;;20.50;99.90;;;;;;5011679;28;20168;-48
2023/08/18 01:37:31;;;;;;;39.97;32.08;;;20.50;99.90;;;;;;5004395;28;20056;-45
2023/08/18 01:40:19;;;;;;;38.65;32.60;;;20.50;99.90;;;;;;5012793;28;20080;-45
2023/08/18 01:43:05;;;;;;;42.08;34.05;;;20.50;99.90;;;;;;5012158;28;20030;-49
2023/08/18 01:45:51;;;;;;;44.90;35.00;;;20.40;99.90;;;;;;5011339;28;20053;-47
2023/08/18 01:48:37;;;;;;;45.67;34.15;;;20.30;99.90;;;;;;5012213;28;20569;-47
2023/08/18 01:51:23;;;;;;;53.10;37.45;;;20.30;99.90;;;;;;5012727;28;20398;-53
2023/08/18 01:54:10;;;;;;;43.15;34.28;;;20.40;99.90;;;;;;4997930;28;20084;-53
2023/08/18 01:56:57;;;;;;;43.03;34.40;;;20.30;99.90;;;;;;4993286;28;20487;-52
2023/08/18 01:59:43;;;;;;;52.47;37.50;;;20.30;99.90;;;;;;4992621;28;20483;-55
2023/08/18 02:02:29;;;;;;;41.55;34.72;;;20.30;99.90;;;;;;4992665;28;20368;-50
2023/08/18 02:05:15;;;;;;;47.05;37.25;;;20.30;99.90;;;;;;4992510;28;20034;-47
2023/08/18 02:08:01;;;;;;;49.33;36.05;;;20.40;99.90;;;;;;4992788;28;20026;-47
2023/08/18 02:10:47;;;;;;;37.35;31.73;;;20.40;99.90;;;;;;5001198;28;20022;-44
2023/08/18 02:13:33;;;;;;;38.28;32.88;;;20.20;99.90;;;;;;5003807;28;20053;-44
2023/08/18 02:16:19;;;;;;;36.80;32.80;;;20.20;99.90;;;;;;5010994;28;20029;-45
2023/08/18 02:19:05;;;;;;;44.55;35.30;;;20.10;99.90;;;;;;5011476;28;20030;-45
2023/08/18 02:21:52;;;;;;;46.40;32.60;;;20.10;99.90;;;;;;5011285;28;20025;-44
2023/08/18 02:24:38;;;;;;;46.63;32.58;;;20.10;99.90;;;;;;5011494;28;20029;-51
2023/08/18 02:27:24;;;;;;;45.63;33.30;;;20.10;99.90;;;;;;5010607;28;20026;-55
2023/08/18 02:30:10;;;;;;;43.55;33.15;;;20.00;99.90;;;;;;5012095;28;20081;-54
2023/08/18 02:32:56;;;;;;;41.92;33.53;;;19.90;99.90;;;;;;5011445;28;20058;-52
2023/08/18 02:35:43;;;;;;;43.08;34.05;;;19.90;99.90;;;;;;5011110;28;20034;-51
2023/08/18 02:38:30;;;;;;;46.83;35.15;;;20.00;99.90;;;;;;5010775;28;20068;-49
2023/08/18 02:41:17;;;;;;;47.78;37.08;;;19.90;99.90;;;;;;5011207;28;20556;-50
2023/08/18 02:44:03;;;;;;;42.03;34.33;;;19.80;99.90;;;;;;5006950;28;20071;-45
2023/08/18 02:46:49;;;;;;;45.42;33.97;;;19.90;99.90;;;;;;5011819;28;20030;-47
2023/08/18 02:49:35;;;;;;;44.13;35.00;;;20.00;99.90;;;;;;5011605;28;20111;-50
2023/08/18 02:52:21;;;;;;;44.42;34.28;;;19.90;99.90;;;;;;5011698;28;20029;-46
2023/08/18 02:55:08;;;;;;;39.15;33.30;;;20.00;99.90;;;;;;5011443;28;20453;-49
2023/08/18 02:57:54;;;;;;;47.10;35.67;;;19.90;99.90;;;;;;5011306;28;20062;-49
2023/08/18 03:00:39;;;;;;;40.13;33.55;;;19.80;99.90;;;;;;5009791;28;20021;-50
2023/08/18 03:03:25;;;;;;;38.30;32.72;;;19.80;99.90;;;;;;5021131;28;20033;-47
2023/08/18 03:06:11;;;;;;;41.63;33.50;;;19.80;99.90;;;;;;5010127;28;20022;-46
2023/08/18 03:08:57;;;;;;;32.92;29.30;;;19.80;99.90;;;;;;5011367;28;20095;-47
2023/08/18 03:11:43;;;;;;;35.55;31.58;;;19.80;99.90;;;;;;5009614;28;20030;-45
2023/08/18 03:14:29;;;;;;;35.20;30.15;;;19.70;99.90;;;;;;5010569;28;20113;-48
2023/08/18 03:17:15;;;;;;;35.67;31.85;;;19.70;99.90;;;;;;5010879;28;20030;-45
2023/08/18 03:20:04;;;;;;;33.03;29.05;;;19.80;99.90;;;;;;5011111;28;20443;-47
2023/08/18 03:22:52;;;;;;;37.22;31.48;;;19.80;99.90;;;;;;5011208;28;20115;-48
2023/08/18 03:25:38;;;;;;;32.97;29.38;;;19.80;99.90;;;;;;5011444;28;20026;-49
2023/08/18 03:28:24;;;;;;;30.65;27.33;;;19.90;99.90;;;;;;5009891;28;20537;-46
2023/08/18 03:31:10;;;;;;;33.47;29.63;;;19.90;99.90;;;;;;5011058;28;20562;-44
2023/08/18 03:33:55;;;;;;;32.45;28.75;;;19.70;99.90;;;;;;5009135;28;20126;-47
2023/08/18 03:36:43;;;;;;;34.38;30.10;;;19.70;99.90;;;;;;5004458;28;20042;-47
2023/08/18 03:39:29;;;;;;;33.30;27.90;;;19.70;99.90;;;;;;5013279;28;20030;-44
2023/08/18 03:42:15;;;;;;;33.08;29.67;;;19.70;99.90;;;;;;5015057;28;20030;-44
2023/08/18 03:45:01;;;;;;;33.67;29.52;;;19.80;99.90;;;;;;5014704;28;20085;-43
2023/08/18 03:47:47;;;;;;;32.20;27.60;;;19.80;99.90;;;;;;5001386;28;20029;-43
2023/08/18 03:50:34;;;;;;;34.50;29.58;;;19.80;99.90;;;;;;5014829;28;20044;-45
2023/08/18 03:53:23;;;;;;;34.63;29.20;;;20.00;99.90;;;;;;5014311;28;20026;-50
2023/08/18 03:56:10;;;;;;;34.80;31.15;;;20.00;99.90;;;;;;5013239;28;20040;-48
2023/08/18 03:58:56;;;;;;;33.88;29.58;;;19.90;99.90;;;;;;5008821;28;20041;-49
2023/08/18 04:01:42;;;;;;;31.40;26.65;;;19.80;99.90;;;;;;5014302;28;20026;-51
2023/08/18 04:04:28;;;;;;;36.38;29.85;;;19.90;99.90;;;;;;5014084;28;20022;-47
2023/08/18 04:07:13;;;;;;;35.22;31.30;;;20.00;99.90;;;;;;4999740;28;20550;-46
2023/08/18 04:09:59;;;;;;;34.08;28.77;;;20.00;99.90;;;;;;5007416;28;20042;-45
2023/08/18 04:12:45;;;;;;;33.72;29.98;;;20.00;99.90;;;;;;4994865;28;20514;-44
2023/08/18 04:15:31;;;;;;;38.80;30.88;;;19.90;99.90;;;;;;4994400;28;20168;-44
2023/08/18 04:18:18;;;;;;;37.85;33.67;;;19.90;99.90;;;;;;4993712;28;20022;-44
2023/08/18 04:21:03;;;;;;;39.13;32.13;;;19.90;99.90;;;;;;4994546;28;20048;-46
2023/08/18 04:23:49;;;;;;;40.67;32.10;;;20.00;99.90;;;;;;4994037;28;20026;-44
2023/08/18 04:26:37;;;;;;;41.08;31.35;;;20.10;99.90;;;;;;4993520;28;20034;-45
2023/08/18 04:29:23;;;;;;;36.28;31.55;;;20.10;99.90;;;;;;4980930;28;20028;-46
2023/08/18 04:32:09;;;;;;;34.20;30.50;;;20.10;99.90;;;;;;5002988;28;20030;-47
2023/08/18 04:34:55;;;;;;;35.97;30.15;;;20.10;99.90;;;;;;4995957;28;20030;-49
2023/08/18 04:37:41;;;;;;;41.40;33.95;;;20.20;99.90;;;;;;4981132;28;20070;-44
2023/08/18 04:40:26;;;;;;;37.40;33.05;;;20.20;99.90;;;;;;4993947;28;20059;-46
2023/08/18 04:43:12;;;;;;;34.85;31.17;;;20.20;99.90;;;;;;4994088;28;20045;-46
2023/08/18 04:45:58;;;;;;;36.90;31.33;;;20.10;99.90;;;;;;5006224;28;20041;-50
2023/08/18 04:48:44;;;;;;;37.78;31.27;;;20.20;99.90;;;;;;4997115;28;20026;-49
2023/08/18 04:51:31;;;;;;;39.35;32.15;;;20.20;99.90;;;;;;5000512;28;20033;-48
2023/08/18 04:54:17;;;;;;;37.67;32.42;;;20.30;99.90;;;;;;5005897;28;20454;-44
2023/08/18 04:57:07;;;;;;;38.33;32.35;;;20.20;99.90;;;;;;5013692;28;20030;-46
2023/08/18 04:59:53;;;;;;;39.72;33.08;;;20.30;99.90;;;;;;5014492;28;20486;-43
2023/08/18 05:02:39;;;;;;;38.83;32.47;;;20.20;99.90;;;;;;5013975;28;20097;-44
2023/08/18 05:05:25;;;;;;;36.33;31.50;;;20.20;99.90;;;;;;5014029;28;20026;-45
2023/08/18 05:08:11;;;;;;;43.40;34.22;;;20.10;99.90;;;;;;5013811;28;20033;-44
2023/08/18 05:11:01;;;;;;;46.97;36.55;;;20.20;99.90;;;;;;5013364;28;20050;-45
2023/08/18 05:13:47;;;;;;;47.05;36.95;;;20.10;99.90;;;;;;5014355;28;20030;-45
2023/08/18 05:16:33;;;;;;;58.05;43.25;;;20.10;99.90;;;;;;5014383;28;20037;-48
2023/08/18 05:19:19;;;;;;;50.67;39.53;;;20.20;99.90;;;;;;5013801;28;20030;-47
2023/08/18 05:22:05;;;;;;;47.30;38.20;;;20.10;99.90;;;;;;5009297;28;20038;-47
2023/08/18 05:24:52;;;;;;;44.65;35.88;;;20.10;99.90;;;;;;5012806;28;20037;-46
2023/08/18 05:27:38;;;;;;;44.42;34.65;;;20.10;99.90;;;;;;5011740;28;20037;-48
2023/08/18 05:30:23;;;;;;;48.00;37.20;;;20.10;99.90;;;;;;5004898;28;20030;-46
2023/08/18 05:33:09;;;;;;;45.20;34.65;;;20.10;99.90;;;;;;5013447;28;20029;-48
2023/08/18 05:35:59;;;;;;;45.17;35.35;;;20.00;99.90;;;;;;4984777;28;20121;-45
2023/08/18 05:38:46;;;;;;;44.75;35.33;;;20.00;99.90;;;;;;4998863;28;20026;-44
2023/08/18 05:41:32;;;;;;;44.55;34.08;;;20.00;99.90;;;;;;5013288;28;20026;-46
2023/08/18 05:44:18;;;;;;;43.10;34.70;;;20.10;99.90;;;;;;5012724;28;20522;-46
2023/08/18 05:47:04;;;;;;;37.88;31.25;;;20.20;99.90;;;;;;5011542;28;20026;-46
2023/08/18 05:49:50;;;;;;;37.25;32.78;;;20.30;99.90;;;;;;5012704;28;20022;-43
2023/08/18 05:52:36;;;;;;;39.65;33.72;;;20.30;99.90;;;;;;5012253;28;20029;-44
2023/08/18 05:55:25;;;;;;;40.55;33.47;;;20.30;99.90;;;;;;5011260;28;20030;-45
2023/08/18 05:58:11;;;;;;;42.58;34.40;;;20.30;99.90;;;;;;5004099;28;20507;-48
2023/08/18 06:00:57;;;;;;;38.75;33.17;;;20.40;99.90;;;;;;5011055;28;20034;-51
2023/08/18 06:03:43;;;;;;;40.13;33.35;;;20.40;99.90;;;;;;5005109;28;20049;-47
2023/08/18 06:06:29;;;;;;;39.35;31.92;;;20.30;99.90;;;;;;5011569;28;20025;-46
2023/08/18 06:09:15;;;;;;;34.28;29.50;;;20.20;99.90;;;;;;5012702;28;20052;-48
2023/08/18 06:12:01;;;;;;;32.53;28.38;;;20.30;99.90;;;;;;5011315;28;20490;-44
2023/08/18 06:14:47;;;;;;;36.53;29.83;;;20.40;99.90;;;;;;5011533;28;20494;-43
2023/08/18 06:17:34;;;;;;;35.95;30.00;;;20.30;99.90;;;;;;5011480;28;20042;-44
2023/08/18 06:20:20;;;;;;;36.85;31.52;;;20.40;99.90;;;;;;5012273;28;20026;-44
2023/08/18 06:23:05;;;;;;;33.58;29.13;;;20.50;99.90;;;;;;5004096;28;20090;-48
2023/08/18 06:25:56;;;;;;;36.15;29.13;;;20.50;99.90;;;;;;5012040;28;20021;-46
2023/08/18 06:28:42;;;;;;;33.22;29.73;;;20.40;99.90;;;;;;5011549;28;20026;-44
2023/08/18 06:31:28;;;;;;;34.40;29.88;;;20.40;99.90;;;;;;5002681;28;20422;-43
2023/08/18 06:34:14;;;;;;;31.52;28.13;;;20.20;99.90;;;;;;5004237;28;20093;-46
2023/08/18 06:37:00;;;;;;;31.60;28.20;;;20.50;99.90;;;;;;4998240;28;20038;-45
2023/08/18 06:39:46;;;;;;;30.30;26.02;;;20.40;99.90;;;;;;5012113;28;20514;-48
2023/08/18 06:42:32;;;;;;;30.45;27.10;;;20.50;99.90;;;;;;5011716;28;20030;-45
2023/08/18 06:45:18;;;;;;;34.60;29.48;;;20.60;99.90;;;;;;5011997;28;20464;-45
2023/08/18 06:48:04;;;;;;;33.25;29.13;;;20.60;99.90;;;;;;5011387;28;20453;-47
2023/08/18 06:50:50;;;;;;;36.15;28.30;;;20.60;99.90;;;;;;5005823;28;20030;-45
2023/08/18 06:53:36;;;;;;;37.97;29.48;;;20.60;99.90;;;;;;5010813;28;20104;-44
2023/08/18 06:56:22;;;;;;;34.78;29.63;;;20.60;99.90;;;;;;5008308;28;20033;-47
2023/08/18 06:59:08;;;;;;;33.45;29.30;;;20.70;99.90;;;;;;4993572;28;20025;-45
2023/08/18 07:01:54;;;;;;;31.08;27.70;;;20.80;99.90;;;;;;5008660;28;20036;-51
2023/08/18 07:04:40;;;;;;;34.83;28.65;;;20.80;99.90;;;;;;4991319;28;20033;-46
2023/08/18 07:07:26;;;;;;;28.00;25.02;;;20.70;99.90;;;;;;5010017;28;20400;-50
2023/08/18 07:10:12;;;;;;;32.83;27.38;;;20.70;99.90;;;;;;5007199;28;20486;-51
2023/08/18 07:12:58;;;;;;;32.63;28.55;;;20.70;99.90;;;;;;4996779;28;20030;-48
2023/08/18 07:15:44;;;;;;;32.85;27.25;;;20.70;99.90;;;;;;5005509;28;20041;-47
2023/08/18 07:18:29;;;;;;;31.45;27.88;;;20.80;99.90;;;;;;5008464;28;20022;-46
2023/08/18 07:21:15;;;;;;;28.33;25.25;;;20.80;99.90;;;;;;5006918;28;20018;-47
2023/08/18 07:24:03;;;;;;;28.95;25.85;;;20.90;99.90;;;;;;5009815;28;20113;-47
2023/08/18 07:26:49;;;;;;;30.63;27.35;;;21.00;99.90;;;;;;5010303;28;20104;-49
2023/08/18 07:29:34;;;;;;;28.73;24.92;;;21.10;99.90;;;;;;5009709;28;20079;-51
2023/08/18 07:32:20;;;;;;;26.17;23.23;;;21.20;99.90;;;;;;4992038;28;20039;-53
2023/08/18 07:35:08;;;;;;;26.90;24.17;;;21.20;99.90;;;;;;5006811;28;20026;-47
2023/08/18 07:37:55;;;;;;;29.90;26.13;;;21.30;99.90;;;;;;5006970;28;20100;-48
2023/08/18 07:40:41;;;;;;;27.50;24.77;;;21.40;99.90;;;;;;5008768;28;20057;-47
2023/08/18 07:43:27;;;;;;;25.27;22.55;;;21.40;99.90;;;;;;5009669;28;20030;-49
2023/08/18 07:46:13;;;;;;;28.92;25.83;;;21.40;99.90;;;;;;5008475;28;20474;-47
2023/08/18 07:48:59;;;;;;;30.00;26.83;;;21.50;99.90;;;;;;5011423;28;20030;-47
2023/08/18 07:51:45;;;;;;;28.80;25.23;;;21.60;99.90;;;;;;5009529;28;20092;-48
2023/08/18 07:54:31;;;;;;;27.55;24.67;;;21.60;99.90;;;;;;5009991;28;20034;-47
2023/08/18 07:57:17;;;;;;;32.92;28.27;;;21.60;99.90;;;;;;5010478;28;20074;-47
2023/08/18 08:00:19;;;;;;;34.33;30.55;;;21.60;99.90;;;;;;5009910;28;20041;-48
2023/08/18 08:03:05;;;;;;;30.30;27.17;;;21.70;99.90;;;;;;5010892;28;20041;-46
2023/08/18 08:05:51;;;;;;;34.72;30.20;;;21.60;99.90;;;;;;5008844;28;20034;-48
2023/08/18 08:08:37;;;;;;;33.67;28.85;;;21.70;99.90;;;;;;5009870;28;20523;-47
2023/08/18 08:11:23;;;;;;;30.75;27.55;;;21.70;99.90;;;;;;5010121;28;20156;-43
2023/08/18 08:14:09;;;;;;;31.33;27.95;;;21.70;99.90;;;;;;4996603;28;20511;-43
2023/08/18 08:16:55;;;;;;;31.88;28.48;;;21.70;99.90;;;;;;5008736;28;20045;-44
2023/08/18 08:19:41;;;;;;;30.08;26.95;;;21.80;99.90;;;;;;4995635;28;20030;-43
2023/08/18 08:22:27;;;;;;;26.38;23.63;;;22.00;99.90;;;;;;5010447;28;20022;-43
2023/08/18 08:25:14;;;;;;;27.48;24.48;;;22.20;99.90;;;;;;5011276;28;20038;-44
2023/08/18 08:28:01;;;;;;;32.05;28.65;;;22.40;99.90;;;;;;5012439;28;20383;-49
2023/08/18 08:30:47;;;;;;;29.00;26.02;;;22.50;99.90;;;;;;5013135;28;20026;-44
2023/08/18 08:33:33;;;;;;;29.38;26.30;;;22.60;99.90;;;;;;5013310;28;20034;-41
2023/08/18 08:36:19;;;;;;;28.50;25.63;;;22.70;99.90;;;;;;5013318;28;20030;-43
2023/08/18 08:39:05;;;;;;;26.95;23.90;;;22.80;99.90;;;;;;5013111;28;20095;-45
2023/08/18 08:41:51;;;;;;;27.67;24.73;;;22.90;99.90;;;;;;5011143;28;20033;-44
2023/08/18 08:44:39;;;;;;;30.60;24.77;;;22.90;99.90;;;;;;5012598;28;20046;-51
2023/08/18 08:47:25;;;;;;;29.20;26.20;;;22.90;99.90;;;;;;5011501;28;20112;-50
2023/08/18 08:50:14;;;;;;;30.80;25.90;;;23.10;99.90;;;;;;5011765;28;20030;-48
2023/08/18 08:53:01;;;;;;;29.85;26.65;;;23.10;99.90;;;;;;5002495;28;20502;-46
2023/08/18 08:55:49;;;;;;;33.63;27.52;;;23.20;99.90;;;;;;5009321;28;20132;-47
2023/08/18 08:58:36;;;;;;;30.40;27.00;;;23.10;99.90;;;;;;5009839;28;20645;-45
2023/08/18 09:01:23;;;;;;;30.45;24.80;;;23.10;99.90;;;;;;5012086;28;20039;-44
2023/08/18 09:04:09;;;;;;;28.33;25.15;;;23.10;99.90;;;;;;4997722;28;20033;-44
2023/08/18 09:06:55;;;;;;;25.35;22.52;;;23.20;99.90;;;;;;5013421;28;20058;-44
2023/08/18 09:09:42;;;;;;;26.45;21.98;;;23.50;99.90;;;;;;5012127;28;20029;-50
2023/08/18 09:12:28;;;;;;;30.50;26.27;;;23.60;99.90;;;;;;5015681;28;20026;-45
2023/08/18 09:15:17;;;;;;;29.20;24.38;;;23.80;99.90;;;;;;4983971;28;20490;-46
2023/08/18 09:18:04;;;;;;;26.83;24.02;;;23.90;99.90;;;;;;5013063;28;20030;-45
2023/08/18 09:20:56;;;;;;;27.55;21.83;;;24.10;99.90;;;;;;5012074;28;20113;-47
2023/08/18 09:23:41;;;;;;;25.98;23.17;;;24.10;99.90;;;;;;5012866;28;20093;-49
2023/08/18 09:26:27;;;;;;;26.73;23.75;;;24.10;99.90;;;;;;5011538;28;20036;-50
2023/08/18 09:29:13;;;;;;;28.55;23.20;;;24.00;99.90;;;;;;5012999;28;20113;-47
2023/08/18 09:31:59;;;;;;;32.70;24.75;;;24.10;99.90;;;;;;5010703;28;20406;-46
2023/08/18 09:34:45;;;;;;;29.98;23.58;;;24.10;99.90;;;;;;5011771;28;20034;-43
2023/08/18 09:37:32;;;;;;;32.75;26.98;;;24.10;99.90;;;;;;5011496;28;20018;-45
2023/08/18 09:40:18;;;;;;;30.25;25.00;;;24.20;99.90;;;;;;5010247;28;20022;-47
2023/08/18 09:43:04;;;;;;;29.67;25.45;;;24.20;99.90;;;;;;5003832;28;20040;-47
2023/08/18 09:45:52;;;;;;;39.80;29.08;;;24.30;99.90;;;;;;5011985;28;20049;-48
2023/08/18 09:48:39;;;;;;;33.65;27.15;;;24.30;99.90;;;;;;5010772;28;20125;-44
2023/08/18 09:51:27;;;;;;;33.67;26.17;;;24.20;99.90;;;;;;5012480;28;20096;-46
2023/08/18 09:54:16;;;;;;;34.97;27.70;;;24.20;99.90;;;;;;5012068;28;20029;-46
2023/08/18 09:57:09;;;;;;;37.35;28.17;;;24.30;99.90;;;;;;5011621;28;20038;-49
2023/08/18 09:59:55;;;;;;;41.65;29.67;;;24.30;99.90;;;;;;5009910;28;20026;-48
2023/08/18 10:02:44;;;;;;;43.15;31.92;;;24.20;99.90;;;;;;5010167;28;20025;-43
2023/08/18 10:05:31;;;;;;;41.60;31.83;;;24.10;99.90;;;;;;5010863;28;20082;-43
2023/08/18 10:08:17;;;;;;;45.50;31.90;;;24.30;99.90;;;;;;5011609;28;20435;-51
2023/08/18 10:11:03;;;;;;;39.90;31.70;;;24.30;99.90;;;;;;5010002;28;20380;-46
2023/08/18 10:13:51;;;;;;;44.50;32.45;;;24.40;99.90;;;;;;5011665;28;20040;-46
2023/08/18 10:16:41;;;;;;;39.38;30.02;;;24.50;99.90;;;;;;5012180;28;20026;-50
2023/08/18 10:19:50;;;;;;;37.75;29.30;;;24.40;99.90;;;;;;5012775;28;20140;-47
2023/08/18 10:22:36;;;;;;;37.25;30.63;;;24.20;99.90;;;;;;5031521;28;20033;-45
2023/08/18 10:25:25;;;;;;;35.88;28.80;;;24.40;99.90;;;;;;5030981;28;20033;-46
2023/08/18 10:28:22;;;;;;;34.90;28.65;;;24.50;99.90;;;;;;5031735;28;20036;-62
2023/08/18 10:31:11;;;;;;;35.10;29.63;;;24.50;99.90;;;;;;5031356;28;20026;-51
2023/08/18 10:34:01;;;;;;;35.63;30.70;;;24.40;99.90;;;;;;5030918;28;20030;-47
2023/08/18 10:36:47;;;;;;;33.45;29.75;;;24.50;99.90;;;;;;5027791;28;20056;-50
2023/08/18 10:39:40;;;;;;;38.03;29.85;;;24.70;99.90;;;;;;5032099;28;20017;-51
2023/08/18 10:42:27;;;;;;;33.22;29.60;;;24.90;99.90;;;;;;5031414;28;20139;-46
2023/08/18 10:45:29;;;;;;;34.75;29.35;;;25.00;99.90;;;;;;5002009;28;20060;-63
2023/08/18 10:48:15;;;;;;;35.72;31.65;;;25.10;99.90;;;;;;5031217;28;20124;-65
2023/08/18 10:51:02;;;;;;;35.35;31.20;;;25.00;99.90;;;;;;5031548;28;20025;-49
2023/08/18 10:53:49;;;;;;;35.92;32.08;;;25.10;99.90;;;;;;5010888;28;20017;-66
2023/08/18 10:56:35;;;;;;;34.88;30.85;;;25.20;99.90;;;;;;5012428;28;20465;-63
2023/08/18 10:59:21;;;;;;;32.90;29.48;;;25.20;99.90;;;;;;5011359;28;20041;-64
2023/08/18 11:02:07;;;;;;;35.95;29.80;;;25.30;99.90;;;;;;5010828;28;20080;-64
2023/08/18 11:04:54;;;;;;;33.42;29.75;;;25.40;99.90;;;;;;4996282;28;20030;-66
2023/08/18 11:07:40;;;;;;;33.78;29.35;;;25.40;99.90;;;;;;5010853;28;20528;-64
2023/08/18 11:10:27;;;;;;;35.05;29.40;;;25.40;99.90;;;;;;5011138;28;20026;-70
2023/08/18 11:13:26;;;;;;;33.65;28.63;;;25.40;99.90;;;;;;4992616;28;20038;-64
2023/08/18 11:16:12;;;;;;;34.70;30.73;;;25.40;99.90;;;;;;4992499;28;20026;-63
2023/08/18 11:19:00;;;;;;;37.97;32.20;;;25.40;99.90;;;;;;4992802;28;20406;-63
2023/08/18 11:21:46;;;;;;;35.88;31.95;;;25.20;99.90;;;;;;4979295;28;20030;-63
2023/08/18 11:24:34;;;;;;;34.65;30.90;;;25.40;99.90;;;;;;4992582;28;20506;-63
2023/08/18 11:27:20;;;;;;;33.25;29.65;;;25.60;99.90;;;;;;4992327;28;20029;-62
2023/08/18 11:30:09;;;;;;;36.35;32.28;;;25.70;99.90;;;;;;5002464;28;20451;-57
2023/08/18 11:32:54;;;;;;;36.25;30.83;;;25.80;99.90;;;;;;5012155;28;20030;-59
2023/08/18 11:35:40;;;;;;;35.15;31.13;;;25.90;99.90;;;;;;5011426;28;20027;-60
2023/08/18 11:38:26;;;;;;;34.25;30.45;;;26.10;99.90;;;;;;5010303;28;20026;-62
2023/08/18 11:41:12;;;;;;;34.63;30.88;;;26.10;99.90;;;;;;5011649;28;20022;-63
2023/08/18 11:43:58;;;;;;;35.80;31.60;;;26.30;99.90;;;;;;5011042;28;20038;-59
2023/08/18 11:46:45;;;;;;;36.80;30.95;;;26.40;99.90;;;;;;5009935;28;20034;-60
2023/08/18 11:49:31;;;;;;;35.70;31.42;;;26.50;99.90;;;;;;5010837;28;20033;-60
2023/08/18 11:52:18;;;;;;;34.40;30.48;;;26.50;99.90;;;;;;5010721;28;20036;-61
2023/08/18 11:55:04;;;;;;;35.45;31.70;;;26.50;99.90;;;;;;5011317;28;20085;-61
2023/08/18 11:57:50;;;;;;;41.33;31.92;;;26.50;99.90;;;;;;4995888;28;20088;-61
2023/08/18 12:00:37;;;;;;;34.88;31.20;;;26.40;99.90;;;;;;5013859;28;20034;-62
2023/08/18 12:03:25;;;;;;;38.13;33.30;;;26.20;99.90;;;;;;5015768;28;20026;-60
2023/08/18 12:06:23;;;;;;;37.30;31.38;;;26.20;99.90;;;;;;5013857;28;20022;-60
2023/08/18 12:09:12;;;;;;;37.65;32.58;;;26.30;99.90;;;;;;5015066;28;20029;-62
2023/08/18 12:11:58;;;;;;;35.35;31.45;;;26.30;99.90;;;;;;5018102;28;20077;-62
2023/08/18 12:14:44;;;;;;;35.85;31.95;;;26.50;99.90;;;;;;5014174;28;20041;-62
2023/08/18 12:17:30;;;;;;;38.03;33.33;;;26.50;99.90;;;;;;5013167;28;20026;-60
2023/08/18 12:20:19;;;;;;;36.58;32.65;;;26.50;99.90;;;;;;5014401;28;20036;-61
2023/08/18 12:23:05;;;;;;;39.25;34.67;;;26.50;99.90;;;;;;5014138;28;20034;-61
2023/08/18 12:25:51;;;;;;;35.17;31.58;;;26.50;99.90;;;;;;5014416;28;20104;-60
2023/08/18 12:28:37;;;;;;;38.15;34.15;;;26.50;99.90;;;;;;5032430;28;20029;-60
2023/08/18 12:31:24;;;;;;;37.80;33.95;;;26.50;99.90;;;;;;5034211;28;20100;-59
2023/08/18 12:34:10;;;;;;;36.53;32.28;;;26.50;99.90;;;;;;5020176;28;20116;-61
2023/08/18 12:36:58;;;;;;;44.10;34.42;;;26.50;99.90;;;;;;5033558;28;20042;-58
2023/08/18 12:39:46;;;;;;;37.55;33.58;;;26.80;99.90;;;;;;5033053;28;20112;-61
2023/08/18 12:42:32;;;;;;;38.17;33.30;;;26.90;99.90;;;;;;5020113;28;20041;-61
2023/08/18 12:45:20;;;;;;;40.22;35.95;;;27.00;99.90;;;;;;5034160;28;20560;-61
2023/08/18 12:48:06;;;;;;;36.70;31.42;;;27.10;99.90;;;;;;5032949;28;20112;-61
2023/08/18 12:50:52;;;;;;;37.10;33.10;;;27.30;99.90;;;;;;5033795;28;20087;-60
2023/08/18 12:53:38;;;;;;;35.47;31.85;;;27.50;99.90;;;;;;5035010;28;20033;-61
2023/08/18 12:56:24;;;;;;;35.03;31.48;;;27.60;99.90;;;;;;4999690;28;20093;-60
2023/08/18 12:59:10;;;;;;;35.38;31.63;;;27.70;99.90;;;;;;5015135;28;20439;-61
2023/08/18 13:01:57;;;;;;;36.03;32.10;;;27.80;99.90;;;;;;5014939;28;20604;-60
2023/08/18 13:04:44;;;;;;;36.13;32.22;;;27.80;99.90;;;;;;5013636;28;20026;-61
2023/08/18 13:07:30;;;;;;;34.15;30.65;;;27.90;99.90;;;;;;5011828;28;20030;-61
2023/08/18 13:10:16;;;;;;;38.00;33.95;;;28.00;99.90;;;;;;5011815;28;20124;-60
2023/08/18 13:13:02;;;;;;;33.92;30.35;;;28.20;99.90;;;;;;5016277;28;20029;-61
2023/08/18 13:15:47;;;;;;;38.72;34.72;;;28.50;99.90;;;;;;5018927;28;20113;-60
2023/08/18 13:18:33;;;;;;;36.72;32.30;;;28.60;99.90;;;;;;5012229;28;20077;-61
2023/08/18 13:21:19;;;;;;;40.38;35.67;;;28.70;99.90;;;;;;5013320;28;20037;-60
2023/08/18 13:24:06;;;;;;;36.92;33.13;;;28.80;99.90;;;;;;5012757;28;20033;-61
2023/08/18 13:26:52;;;;;;;37.38;33.58;;;28.90;99.90;;;;;;5011621;28;20029;-61
2023/08/18 13:29:38;;;;;;;37.38;31.80;;;28.90;99.90;;;;;;5006071;28;20036;-62
2023/08/18 13:32:24;;;;;;;35.63;31.98;;;29.00;99.90;;;;;;5012982;28;20034;-62
2023/08/18 13:35:10;;;;;;;34.72;31.33;;;29.30;99.90;;;;;;4985227;28;20068;-63
2023/08/18 13:37:56;;;;;;;35.50;32.00;;;29.40;99.90;;;;;;5011382;28;20083;-62
2023/08/18 13:40:42;;;;;;;33.03;29.75;;;29.50;99.90;;;;;;5011604;28;20030;-62
2023/08/18 13:43:28;;;;;;;33.17;29.90;;;29.70;99.90;;;;;;5011397;28;20030;-61
2023/08/18 13:46:13;;;;;;;32.00;28.70;;;29.80;99.90;;;;;;5011296;28;20034;-62
2023/08/18 13:48:59;;;;;;;32.47;29.02;;;30.00;99.90;;;;;;5010865;28;20026;-62
2023/08/18 13:51:45;;;;;;;29.67;26.88;;;29.90;99.90;;;;;;5010929;28;20036;-61
2023/08/18 13:54:32;;;;;;;29.20;26.33;;;29.90;99.90;;;;;;5000292;28;20109;-60
2023/08/18 13:57:17;;;;;;;27.17;24.58;;;30.00;99.90;;;;;;5009784;28;20753;-61
2023/08/18 14:00:04;;;;;;;28.63;25.95;;;30.20;99.90;;;;;;5009535;28;20036;-61
2023/08/18 14:02:50;;;;;;;29.65;26.73;;;30.40;99.90;;;;;;4996534;28;20029;-61
2023/08/18 14:05:42;;;;;;;29.35;26.65;;;30.60;99.60;;;;;;5009578;28;20116;-61
2023/08/18 14:08:28;;;;;;;28.90;26.23;;;30.90;98.90;;;;;;5012563;28;20041;-61